»·PEaware :: N516DM KSAC-KRDD

N516DM :: KSAC-KRDD

FLIGHT INFORMATION

Flight Status: Arrived
Operator: Privately registered:
United States
More flights under this callsign
Pilot: Thomas H. (5912)
Aircraft: CESSNA T210 TURBO CENTURION
(T210)
More flights by this aircraft type
Origin: KSAC Sacramento Executive
United States
Destination: KRDD Redding Mun
United States
More flights between these airports :: More routes between these airports
Route: CAPTO V23 RBL
File this flight plan on PilotEdge
Remarks:
Altitude:
(Current/Filed)
8,000ft
Speed:
(Current/Filed)
160kts
Departed: 29-Sep-18 08:18 AM
Arrived: 29-Sep-18 09:12 AM
Distance/Time
Traveled:
126nm/0:54
Distance/Time
To Go:
Arrived

Flight Plot

Page will automatically refresh every two minutes.

Flight plan parsing failed; only flown route is shown


Map Options




Map Legend


Flown Route
Filed Route
Departure Airport
Arrival Airport
Navaid (VOR, NDB)
Fix

Horizontal Profiles

Position Reports

Time Latitude Longitude Heading Altitude Ground
Speed
29-Sep-18 08:02 38.511018 -121.499972 92 20ft 0kts
29-Sep-18 08:03 38.511018 -121.499972 92 20ft 0kts
29-Sep-18 08:04 38.511018 -121.499972 92 20ft 0kts
29-Sep-18 08:07 38.511018 -121.499972 92 20ft 0kts
29-Sep-18 08:08 38.511018 -121.499972 92 20ft 0kts
29-Sep-18 08:09 38.511018 -121.499972 92 20ft 0kts
29-Sep-18 08:10 38.511018 -121.499972 92 20ft 0kts
29-Sep-18 08:11 38.511018 -121.499972 92 20ft 0kts
29-Sep-18 08:12 38.511018 -121.499972 92 20ft 0kts
29-Sep-18 08:13 38.511018 -121.499972 92 20ft 0kts
29-Sep-18 08:14 38.511018 -121.499972 92 20ft 0kts
29-Sep-18 08:15 38.511020 -121.499633 79 20ft 8kts
29-Sep-18 08:16 38.511905 -121.496868 42 20ft 7kts
29-Sep-18 08:17 38.514957 -121.494321 34 20ft 15kts
29-Sep-18 08:18 38.518580 -121.491288 33 23ft 15kts
29-Sep-18 08:19 38.519154 -121.490404 103 23ft 0kts
29-Sep-18 08:20 38.517005 -121.490926 210 21ft 42kts
29-Sep-18 08:21 38.496061 -121.507788 210 861ft 105kts
29-Sep-18 08:22 38.470116 -121.529593 212 1823ft 114kts
29-Sep-18 08:23 38.438660 -121.556174 215 1986ft 156kts
29-Sep-18 08:24 38.441758 -121.602439 331 2529ft 156kts
29-Sep-18 08:25 38.482935 -121.609333 355 3405ft 145kts
29-Sep-18 08:26 38.522604 -121.612509 355 4318ft 142kts
29-Sep-18 08:27 38.561566 -121.615623 354 5275ft 141kts
29-Sep-18 08:28 38.600600 -121.618742 354 6185ft 142kts
29-Sep-18 08:29 38.640377 -121.621844 354 7079ft 145kts
29-Sep-18 08:30 38.680564 -121.626945 342 7957ft 146kts
29-Sep-18 08:31 38.725403 -121.641306 343 8010ft 176kts
29-Sep-18 08:32 38.773222 -121.656565 341 8008ft 179kts
29-Sep-18 08:33 38.821551 -121.672107 342 8006ft 179kts
29-Sep-18 08:34 38.870048 -121.687648 342 8006ft 179kts
29-Sep-18 08:35 38.918526 -121.703222 342 8012ft 181kts
29-Sep-18 08:36 38.967569 -121.719010 342 8022ft 184kts
29-Sep-18 08:37 39.017790 -121.735203 342 8030ft 188kts
29-Sep-18 08:38 39.069138 -121.751758 343 8035ft 191kts
29-Sep-18 08:39 39.120306 -121.768266 343 8027ft 191kts
29-Sep-18 08:40 39.171812 -121.784931 343 8027ft 191kts
29-Sep-18 08:41 39.223224 -121.801598 343 8028ft 191kts
29-Sep-18 08:42 39.274672 -121.818301 343 8028ft 191kts
29-Sep-18 08:43 39.326103 -121.835113 340 8028ft 191kts
29-Sep-18 08:44 39.375371 -121.860015 334 8028ft 190kts
29-Sep-18 08:45 39.416424 -121.881209 335 8022ft 191kts
29-Sep-18 08:46 39.474127 -121.910962 335 8012ft 192kts
29-Sep-18 08:47 39.523700 -121.936549 336 8003ft 192kts
29-Sep-18 08:48 39.573425 -121.962232 336 8003ft 192kts
29-Sep-18 08:49 39.614461 -121.983445 336 7724ft 195kts
29-Sep-18 08:50 39.663163 -122.008624 337 6943ft 187kts
29-Sep-18 08:51 39.719439 -122.037829 338 5850ft 185kts
29-Sep-18 08:52 39.759026 -122.058401 339 5088ft 183kts
29-Sep-18 08:53 39.805751 -122.082885 339 4192ft 179kts
29-Sep-18 08:54 39.850280 -122.106237 340 4003ft 167kts
29-Sep-18 08:55 39.899861 -122.132079 339 4012ft 163kts
29-Sep-18 08:56 39.934769 -122.150328 338 4019ft 162kts
29-Sep-18 08:57 39.976433 -122.172146 338 4027ft 161kts
29-Sep-18 08:58 40.017845 -122.193873 338 4032ft 160kts
29-Sep-18 08:59 40.059016 -122.215447 338 4032ft 159kts
29-Sep-18 09:00 40.099914 -122.236426 349 4030ft 158kts
29-Sep-18 09:01 40.141826 -122.242383 356 4027ft 149kts
29-Sep-18 09:02 40.182673 -122.248012 355 4027ft 147kts
29-Sep-18 09:03 40.223320 -122.253648 355 4025ft 146kts
29-Sep-18 09:04 40.264501 -122.258679 359 3736ft 157kts
29-Sep-18 09:05 40.309631 -122.261004 357 2935ft 163kts
29-Sep-18 09:06 40.350906 -122.265066 0 2624ft 123kts
29-Sep-18 09:07 40.386548 -122.268189 1 1760ft 127kts
29-Sep-18 09:08 40.419165 -122.270603 354 1680ft 116kts
29-Sep-18 09:09 40.452405 -122.277607 349 1648ft 124kts
29-Sep-18 09:10 40.487017 -122.283532 3 1504ft 124kts
29-Sep-18 09:11 40.517786 -122.283536 358 1429ft 103kts
29-Sep-18 09:12 40.541896 -122.295007 260 1251ft 90kts
29-Sep-18 09:13 40.523359 -122.295077 169 589ft 72kts
29-Sep-18 09:14 40.509435 -122.294992 186 496ft 32kts
29-Sep-18 09:15 40.508178 -122.295661 302 496ft 0kts
29-Sep-18 09:16 40.508495 -122.297102 232 496ft 13kts
29-Sep-18 09:17 40.510292 -122.298632 1 496ft 14kts
29-Sep-18 09:18 40.510581 -122.299923 178 496ft 0kts

Navigation Log

Ident Type
Flight plan parsing failed, navigation log unavailable